createdAt,value
2018-02-09T00:02:59.177Z,97.77
2018-02-09T00:09:03.662Z,92.33
2018-02-09T00:15:08.473Z,93.67
2018-02-09T00:21:13.722Z,95.27
2018-02-09T00:27:18.231Z,95.53
2018-02-09T00:33:23.053Z,91.60
2018-02-09T00:39:27.550Z,92.73
2018-02-09T00:45:32.104Z,90.73
2018-02-09T00:51:36.677Z,91.47
2018-02-09T00:57:41.179Z,94.60
2018-02-09T01:03:45.675Z,103.97
2018-02-09T01:09:50.204Z,81.20
2018-02-09T01:15:55.114Z,90.50
2018-02-09T01:21:59.614Z,82.27
2018-02-09T01:28:04.119Z,92.40
2018-02-09T01:34:08.728Z,87.87
2018-02-09T01:40:13.572Z,81.07
2018-02-09T01:46:18.090Z,92.57
2018-02-09T01:52:22.836Z,93.83
2018-02-09T01:58:27.343Z,91.63
2018-02-09T02:04:32.638Z,84.30
2018-02-09T02:10:37.958Z,91.37
2018-02-09T02:16:42.445Z,101.23
2018-02-09T02:22:47.155Z,95.53
2018-02-09T02:28:53.181Z,96.20
2018-02-09T02:34:57.709Z,117.17
2018-02-09T02:41:02.199Z,86.27
2018-02-09T02:47:06.666Z,87.03
2018-02-09T02:53:11.300Z,93.83
2018-02-09T02:59:15.808Z,101.00
2018-02-09T03:05:20.888Z,97.93
2018-02-09T03:11:26.517Z,106.00
2018-02-09T03:17:31.120Z,96.43
2018-02-09T03:23:35.683Z,79.53
2018-02-09T03:29:40.172Z,90.13
2018-02-09T03:35:44.649Z,104.40
2018-02-09T03:41:49.211Z,82.63
2018-02-09T03:47:53.988Z,97.07
2018-02-09T03:53:58.636Z,97.33
2018-02-09T04:00:03.260Z,88.43
2018-02-09T04:06:07.834Z,93.80
2018-02-09T04:12:12.318Z,99.57
2018-02-09T04:18:16.978Z,88.53
2018-02-09T04:24:22.358Z,88.87
2018-02-09T04:30:26.948Z,105.27
2018-02-09T04:36:32.291Z,99.70
2018-02-09T04:42:36.913Z,115.17
2018-02-09T04:48:41.551Z,107.30
2018-02-09T04:54:46.420Z,92.60
2018-02-09T05:00:51.743Z,115.23
2018-02-09T05:06:56.383Z,111.97
2018-02-09T05:13:01.003Z,105.87
2018-02-09T05:19:05.838Z,111.30
2018-02-09T05:25:10.591Z,105.40
2018-02-09T05:31:15.851Z,118.63
2018-02-09T05:37:20.633Z,125.67
2018-02-09T05:43:25.274Z,108.20
2018-02-09T05:49:29.943Z,105.43
2018-02-09T05:55:35.263Z,127.20
2018-02-09T06:01:39.956Z,100.93
2018-02-09T06:07:44.588Z,115.87
2018-02-09T06:13:49.110Z,112.70
2018-02-09T06:19:54.143Z,121.07
2018-02-09T06:25:58.770Z,117.80
2018-02-09T06:32:03.429Z,135.83
2018-02-09T06:38:08.685Z,137.60
2018-02-09T06:44:13.173Z,136.90
2018-02-09T06:50:17.768Z,141.53
2018-02-09T06:56:22.858Z,126.60
2018-02-09T07:02:27.754Z,144.93
2018-02-09T07:08:32.237Z,128.30
2018-02-09T07:14:36.893Z,153.90
2018-02-09T07:20:41.482Z,157.20
2018-02-09T07:26:47.739Z,134.63
2018-02-09T07:32:53.020Z,142.07
2018-02-09T07:38:57.574Z,140.97
2018-02-09T07:45:03.940Z,144.00
2018-02-09T07:51:08.468Z,146.67
2018-02-09T07:57:12.948Z,170.00
2018-02-09T08:03:18.248Z,158.00
2018-02-09T08:09:23.069Z,152.70
2018-02-09T08:15:27.649Z,157.53
2018-02-09T08:21:32.904Z,164.43
2018-02-09T08:27:37.414Z,159.97
2018-02-09T08:33:42.688Z,147.13
2018-02-09T08:39:47.178Z,165.50
2018-02-09T08:45:53.092Z,152.70
2018-02-09T08:51:58.338Z,150.10
2018-02-09T08:58:03.005Z,153.83
2018-02-09T09:04:07.530Z,141.27
2018-02-09T09:10:12.829Z,135.67
2018-02-09T09:16:18.147Z,140.93
2018-02-09T09:22:22.826Z,139.13
2018-02-09T09:28:27.445Z,136.80
2018-02-09T09:34:32.768Z,129.53
2018-02-09T09:40:38.046Z,128.50
2018-02-09T09:46:42.551Z,135.57
2018-02-09T09:52:47.068Z,122.60
2018-02-09T09:58:51.605Z,119.17
2018-02-09T10:04:56.206Z,135.33
2018-02-09T10:11:01.509Z,126.30
2018-02-09T10:17:06.766Z,123.40
2018-02-09T10:23:11.275Z,128.00
2018-02-09T10:29:15.781Z,123.80
2018-02-09T10:35:21.074Z,122.03
2018-02-09T10:41:25.757Z,116.27
2018-02-09T10:47:30.397Z,122.47
2018-02-09T10:53:35.008Z,118.23
2018-02-09T10:59:39.633Z,129.00
2018-02-09T11:05:44.287Z,128.20
2018-02-09T11:11:48.924Z,124.33
2018-02-09T11:17:53.945Z,118.67
2018-02-09T11:23:58.528Z,116.87
2018-02-09T11:30:03.094Z,113.63
2018-02-09T11:36:07.613Z,111.77
2018-02-09T11:42:12.304Z,104.27
2018-02-09T11:48:16.803Z,101.13
2018-02-09T11:54:21.587Z,108.43
2018-02-09T12:00:26.274Z,114.60
2018-02-09T12:06:30.749Z,97.33
2018-02-09T12:12:35.266Z,116.70
2018-02-09T12:18:40.032Z,122.90
2018-02-09T12:24:45.413Z,113.67
2018-02-09T12:30:50.635Z,111.43
2018-02-09T12:36:56.240Z,101.30
2018-02-09T12:43:00.964Z,99.97
2018-02-09T12:49:05.448Z,107.37
2018-02-09T12:55:09.938Z,109.20
2018-02-09T13:01:14.579Z,102.27
2018-02-09T13:07:19.443Z,101.63
2018-02-09T13:13:24.288Z,102.43
2018-02-09T13:19:28.970Z,93.90
2018-02-09T13:25:33.490Z,110.57
2018-02-09T13:31:39.570Z,108.57
2018-02-09T13:37:44.079Z,123.43
2018-02-09T13:43:48.553Z,117.00
2018-02-09T13:49:53.264Z,92.47
2018-02-09T13:55:57.893Z,99.53
2018-02-09T14:02:02.528Z,105.87
2018-02-09T14:08:07.056Z,84.30
2018-02-09T14:14:11.529Z,93.83
2018-02-09T14:20:16.129Z,92.83
2018-02-09T14:26:21.405Z,100.30
2018-02-09T14:32:25.977Z,87.10
2018-02-09T14:38:30.450Z,98.47
2018-02-09T14:44:34.932Z,95.57
2018-02-09T14:50:39.435Z,85.43
2018-02-09T14:56:44.662Z,82.37
2018-02-09T15:02:49.472Z,79.17
2018-02-09T15:08:54.434Z,86.13
2018-02-09T15:14:58.895Z,83.87
2018-02-09T15:21:03.427Z,105.00
2018-02-09T15:27:07.931Z,95.53
2018-02-09T15:33:12.434Z,99.53
2018-02-09T15:39:16.916Z,111.63
2018-02-09T15:45:22.204Z,109.10
2018-02-09T15:51:28.274Z,94.13
2018-02-09T15:57:32.845Z,90.63
2018-02-09T16:03:37.585Z,91.67
2018-02-09T16:09:42.127Z,93.73
2018-02-09T16:15:46.621Z,90.50
2018-02-09T16:21:51.488Z,103.30
2018-02-09T16:27:56.057Z,97.87
2018-02-09T16:34:00.655Z,88.53
2018-02-09T16:40:05.129Z,95.97
2018-02-09T16:46:09.834Z,88.07
2018-02-09T16:52:15.243Z,95.47
2018-02-09T16:58:20.112Z,85.80
2018-02-09T17:04:24.982Z,105.87
2018-02-09T17:10:29.479Z,80.97
2018-02-09T17:16:34.705Z,79.80
2018-02-09T17:22:39.171Z,86.73
2018-02-09T17:28:43.650Z,80.63
2018-02-09T17:34:48.122Z,83.40
2018-02-09T17:40:53.191Z,86.53
2018-02-09T17:46:58.426Z,95.87
2018-02-09T17:53:02.899Z,93.87
2018-02-09T17:59:07.371Z,111.63
2018-02-09T18:05:11.900Z,94.27
2018-02-09T18:11:16.510Z,109.23
2018-02-09T18:17:21.952Z,102.57
2018-02-09T18:23:27.264Z,113.50
2018-02-09T18:29:31.757Z,102.33
2018-02-09T18:35:37.093Z,103.10
2018-02-09T18:41:41.600Z,121.73
2018-02-09T18:47:46.295Z,116.83
2018-02-09T18:53:50.979Z,122.30
2018-02-09T18:59:55.575Z,108.00
2018-02-09T19:06:00.088Z,108.77
2018-02-09T19:12:04.655Z,112.83
2018-02-09T19:18:10.014Z,126.97
2018-02-09T19:24:14.613Z,175.63
2018-02-09T19:30:20.144Z,130.43
2018-02-09T19:36:24.869Z,160.80
2018-02-09T19:42:29.351Z,127.97
2018-02-09T19:48:33.998Z,123.63
2018-02-09T19:54:38.623Z,123.07
2018-02-09T20:00:43.274Z,124.87
2018-02-09T20:06:48.136Z,130.33
2018-02-09T20:12:53.033Z,132.43
2018-02-09T20:18:57.573Z,142.50
2018-02-09T20:25:02.854Z,152.40
2018-02-09T20:31:08.830Z,131.30
2018-02-09T20:37:13.317Z,138.93
2018-02-09T20:43:17.886Z,145.73
2018-02-09T20:49:22.843Z,169.17
2018-02-09T20:55:27.631Z,149.43
2018-02-09T21:01:32.927Z,150.60
2018-02-09T21:07:37.519Z,140.63
2018-02-09T21:13:42.000Z,143.63
2018-02-09T21:19:46.562Z,146.77
2018-02-09T21:25:51.090Z,147.80
2018-02-09T21:31:55.756Z,150.10
2018-02-09T21:38:00.419Z,146.67
2018-02-09T21:44:04.998Z,142.03
2018-02-09T21:50:09.549Z,131.90
2018-02-09T21:56:14.780Z,134.63
2018-02-09T22:02:19.793Z,124.33
2018-02-09T22:08:24.606Z,124.67
2018-02-09T22:14:29.917Z,119.37
2018-02-09T22:20:35.158Z,136.90
2018-02-09T22:26:39.718Z,122.73
2018-02-09T22:32:44.302Z,133.27
2018-02-09T22:38:48.950Z,127.97
2018-02-09T22:44:54.215Z,122.67
2018-02-09T22:50:58.730Z,112.43
2018-02-09T22:57:03.559Z,112.93
2018-02-09T23:03:08.166Z,108.83
2018-02-09T23:09:12.695Z,104.47
2018-02-09T23:15:17.160Z,110.50
2018-02-09T23:21:22.539Z,104.70
2018-02-09T23:27:28.011Z,105.33
2018-02-09T23:33:32.667Z,101.37
2018-02-09T23:39:37.275Z,97.50
2018-02-09T23:45:41.764Z,90.43
2018-02-09T23:51:46.408Z,101.33
2018-02-09T23:57:51.654Z,90.37
